Aeroporto :
LOGIN :

Iscrizione | Disclaimer

   EN    FR    IT 

 










Sommario :    VFR   VFR Marginale   IFR   IFR Intensivo   IFR Molto Intensivo
Visibilità : 
Base nubi : 
>= 8 km
>= 3000ft
5 / 8 km
1000 / 3000 ft
1500m / 5 km
500 / 1000 ft
800 / 1500m
200 / 500 ft
< 800m
< 200 ft
Simboli :   Temporali  Nebbia  Neve Forte  Precipitazioni Forti  Vento > 20 kt
SIGMETs :   Varie  Temporali  Ghiacco  Turbolenza  Onda orograficha  Ceneri Vulcaniche






- Altitudine del aeroporto : 146 ft
- Codice IATA : RKE


EKRK - Roskilde Tune

ULTIMO METAR :
  • 190250Z AUTO 21015KT 9999 -RA OVC011/// 05/04 Q1002

METARs OBSOLETI :
  • 190220Z AUTO 21011KT 9999 -RA OVC010/// 05/04 Q1003
  • 190150Z AUTO 20013KT 9999 -RA OVC010/// 05/04 Q1004
  • 190120Z AUTO 21012KT 9999 -RA OVC011/// 05/03 Q1005
  • 190050Z AUTO 22012KT 9999 -RA BKN013/// OVC043/// 05/03 Q1005
  • 190020Z AUTO 22012KT 9999 OVC011/// 05/03 Q1005

TAF TAF EKRK
Valido dal 19 a 03 ore il 19 a 12 ore UTC


190222Z 1903/1912 22014KT 9999 BKN020
TEMPO 1903/1904 23018G28KT 4000 SHRA BKN008 BKN020CB
TEMPO 1904/1912 4000 SHRA BKN008 BKN020CB
BECMG 1905/1908 27012KT



MetMap, La meteo Aeronautica in un colpo d'occhio ! - Copyright ORBIFLY Dicembre 2007 - Disclaimer

ORBIFLY MET'MAP TEAM :

Programmazione e sviluppo : Alexandra Zaïnal
Concezione : Baudouin d'Aumeries
Aiuto per la programmazione : Marc-Olivier Méhu
Supporto tecnico e logistico : Manuel Goepfert
Aiuto per la traduzione : Arnaldo La Scala

Contatto : metmap@orbifly.com




FONTI E CREDITI :

   NOAA